createdAt,value
2023-03-17T00:01:54.568Z,72.60
2023-03-17T00:04:24.288Z,72.40
2023-03-17T00:06:51.772Z,72.90
2023-03-17T00:09:19.883Z,72.40
2023-03-17T00:11:47.517Z,72.50
2023-03-17T00:14:14.761Z,72.60
2023-03-17T00:16:50.708Z,72.50
2023-03-17T00:19:39.471Z,72.00
2023-03-17T00:22:15.546Z,71.90
2023-03-17T00:24:45.375Z,73.50
2023-03-17T00:27:13.610Z,74.10
2023-03-17T00:29:40.526Z,75.80
2023-03-17T00:32:16.966Z,77.80
2023-03-17T00:34:44.743Z,79.70
2023-03-17T00:37:13.018Z,79.30
2023-03-17T00:39:40.306Z,80.00
2023-03-17T00:42:07.557Z,80.20
2023-03-17T00:44:34.672Z,80.50
2023-03-17T00:47:02.096Z,80.60
2023-03-17T00:49:29.236Z,79.50
2023-03-17T00:51:56.112Z,79.10
2023-03-17T00:54:23.023Z,79.50
2023-03-17T00:56:52.039Z,80.10
2023-03-17T00:59:27.397Z,80.90
2023-03-17T01:01:55.352Z,81.60
2023-03-17T01:04:22.748Z,82.30
2023-03-17T01:06:50.482Z,82.50
2023-03-17T01:09:19.270Z,83.30
2023-03-17T01:11:46.990Z,83.90
2023-03-17T01:14:13.756Z,84.10
2023-03-17T01:16:40.771Z,85.10
2023-03-17T01:19:09.161Z,85.80
2023-03-17T01:21:35.912Z,86.00
2023-03-17T01:24:02.811Z,85.80
2023-03-17T01:26:30.161Z,85.80
2023-03-17T01:28:57.068Z,86.20
2023-03-17T01:31:24.385Z,86.90
2023-03-17T01:33:51.325Z,87.60
2023-03-17T01:36:18.393Z,88.10
2023-03-17T01:38:47.971Z,88.00
2023-03-17T01:41:14.968Z,88.50
2023-03-17T01:43:42.602Z,89.00
2023-03-17T01:46:27.750Z,88.90
2023-03-17T01:49:15.942Z,88.90
2023-03-17T01:52:06.473Z,89.00
2023-03-17T01:54:45.919Z,89.40
2023-03-17T01:57:23.573Z,89.90
2023-03-17T01:59:55.931Z,90.10
2023-03-17T02:02:32.609Z,90.10
2023-03-17T02:04:59.936Z,90.20
2023-03-17T02:07:28.025Z,90.20
2023-03-17T02:09:57.086Z,90.30
2023-03-17T02:12:25.165Z,90.40
2023-03-17T02:14:52.791Z,90.50
2023-03-17T02:17:22.109Z,90.70
2023-03-17T02:19:49.776Z,90.60
2023-03-17T02:22:18.444Z,90.60
2023-03-17T02:24:55.941Z,90.60
2023-03-17T02:27:35.751Z,90.50
2023-03-17T02:30:04.543Z,90.60
2023-03-17T02:32:36.158Z,90.60
2023-03-17T02:35:04.344Z,90.60
2023-03-17T02:37:31.242Z,90.70
2023-03-17T02:39:58.367Z,90.90
2023-03-17T02:42:25.092Z,91.00
2023-03-17T02:44:51.841Z,91.10
2023-03-17T02:47:19.044Z,91.20
2023-03-17T02:49:45.914Z,91.10
2023-03-17T02:52:13.210Z,91.10
2023-03-17T02:54:40.298Z,91.10
2023-03-17T02:57:08.443Z,91.20
2023-03-17T02:59:36.157Z,91.10
2023-03-17T03:02:02.973Z,91.10
2023-03-17T03:04:30.595Z,91.00
2023-03-17T03:06:57.637Z,91.00
2023-03-17T03:09:25.694Z,91.00
2023-03-17T03:11:52.383Z,91.00
2023-03-17T03:14:19.162Z,90.90
2023-03-17T03:16:46.905Z,90.80
2023-03-17T03:19:13.717Z,90.80
2023-03-17T03:21:40.640Z,90.80
2023-03-17T03:24:07.529Z,90.60
2023-03-17T03:26:34.207Z,90.60
2023-03-17T03:29:01.376Z,90.60
2023-03-17T03:31:28.254Z,90.70
2023-03-17T03:33:55.160Z,90.60
2023-03-17T03:36:22.526Z,90.60
2023-03-17T03:38:49.448Z,90.70
2023-03-17T03:41:16.128Z,90.70
2023-03-17T03:43:42.922Z,90.70
2023-03-17T03:46:09.713Z,91.00
2023-03-17T03:48:36.461Z,91.10
2023-03-17T03:51:03.870Z,91.10
2023-03-17T03:53:30.921Z,91.20
2023-03-17T03:55:57.696Z,91.40
2023-03-17T03:58:24.539Z,91.40
2023-03-17T04:00:51.528Z,91.30
2023-03-17T04:03:18.647Z,91.40
2023-03-17T04:05:45.437Z,91.40
2023-03-17T04:08:12.353Z,91.50
2023-03-17T04:10:39.143Z,91.50
2023-03-17T04:13:06.578Z,91.60
2023-03-17T04:15:33.677Z,91.70
2023-03-17T04:18:00.386Z,91.90
2023-03-17T04:20:27.161Z,91.90
2023-03-17T04:22:53.908Z,92.00
2023-03-17T04:25:20.654Z,92.00
2023-03-17T04:27:47.483Z,92.00
2023-03-17T04:30:16.692Z,91.90
2023-03-17T04:32:44.708Z,91.90
2023-03-17T04:35:14.795Z,91.80
2023-03-17T04:37:41.727Z,91.80
2023-03-17T04:40:11.627Z,91.70
2023-03-17T04:42:38.950Z,91.70
2023-03-17T04:45:06.535Z,91.70
2023-03-17T04:47:33.848Z,91.70
2023-03-17T04:50:01.319Z,91.80
2023-03-17T04:52:28.485Z,91.90
2023-03-17T04:54:55.237Z,91.90
2023-03-17T04:57:22.365Z,91.80
2023-03-17T04:59:49.048Z,91.90
2023-03-17T05:02:15.842Z,92.00
2023-03-17T05:04:43.208Z,91.90
2023-03-17T05:07:09.960Z,92.00
2023-03-17T05:09:37.056Z,91.90
2023-03-17T05:12:04.368Z,91.90
2023-03-17T05:14:31.129Z,92.00
2023-03-17T05:16:57.928Z,92.10
2023-03-17T05:19:24.725Z,92.20
2023-03-17T05:21:51.601Z,92.20
2023-03-17T05:24:18.332Z,92.20
2023-03-17T05:26:45.468Z,92.30
2023-03-17T05:29:12.224Z,92.30
2023-03-17T05:31:38.978Z,92.30
2023-03-17T05:34:05.782Z,92.40
2023-03-17T05:36:33.509Z,92.40
2023-03-17T05:39:00.575Z,92.50
2023-03-17T05:41:28.051Z,92.50
2023-03-17T05:43:54.840Z,92.60
2023-03-17T05:46:22.439Z,92.60
2023-03-17T05:48:49.138Z,92.60
2023-03-17T05:51:16.033Z,92.60
2023-03-17T05:53:43.353Z,92.60
2023-03-17T05:56:10.064Z,92.70
2023-03-17T05:58:36.901Z,92.70
2023-03-17T06:01:03.768Z,92.70
2023-03-17T06:03:30.620Z,92.70
2023-03-17T06:05:57.509Z,92.80
2023-03-17T06:08:24.236Z,92.80
2023-03-17T06:10:51.501Z,92.80
2023-03-17T06:13:18.268Z,92.80
2023-03-17T06:15:46.734Z,92.90
2023-03-17T06:18:13.432Z,93.00
2023-03-17T06:20:40.204Z,93.00
2023-03-17T06:23:06.899Z,93.00
2023-03-17T06:25:35.132Z,92.90
2023-03-17T06:28:03.590Z,92.90
2023-03-17T06:30:32.763Z,92.90
2023-03-17T06:33:00.264Z,92.90
2023-03-17T06:35:27.632Z,92.90
2023-03-17T06:37:54.911Z,93.00
2023-03-17T06:40:21.738Z,93.00
2023-03-17T06:42:48.507Z,93.10
2023-03-17T06:45:15.995Z,93.10
2023-03-17T06:47:43.533Z,93.20
2023-03-17T06:50:12.216Z,93.20
2023-03-17T06:52:39.870Z,93.30
2023-03-17T06:55:08.537Z,93.20
2023-03-17T06:57:35.809Z,93.20
2023-03-17T07:00:06.280Z,93.10
2023-03-17T07:02:33.744Z,93.10
2023-03-17T07:05:01.000Z,93.00
2023-03-17T07:07:28.317Z,92.90
2023-03-17T07:09:55.198Z,92.80
2023-03-17T07:12:22.190Z,92.80
2023-03-17T07:14:49.028Z,92.80
2023-03-17T07:17:16.226Z,92.80
2023-03-17T07:19:43.591Z,92.60
2023-03-17T07:22:12.332Z,92.30
2023-03-17T07:24:39.727Z,91.60
2023-03-17T07:27:07.046Z,90.40
2023-03-17T07:29:34.630Z,87.50
2023-03-17T07:32:02.093Z,82.90
2023-03-17T07:34:28.933Z,71.10
2023-03-17T07:36:55.688Z,46.30
2023-03-17T07:39:22.550Z,1.00
2023-03-17T07:41:55.006Z,1.00
2023-03-17T07:44:22.704Z,1.00
2023-03-17T07:46:50.522Z,1.00
2023-03-17T07:49:20.941Z,1.00
2023-03-17T07:51:54.413Z,92.50
2023-03-17T07:54:21.130Z,85.30
2023-03-17T07:56:48.682Z,1.00
2023-03-17T07:59:15.359Z,94.30
2023-03-17T08:01:42.142Z,94.00
2023-03-17T08:04:10.841Z,88.90
2023-03-17T08:06:38.485Z,66.50
2023-03-17T08:09:05.302Z,87.80
2023-03-17T08:11:32.126Z,83.00
2023-03-17T08:13:59.916Z,84.70
2023-03-17T08:16:26.734Z,32.70
2023-03-17T08:18:53.452Z,30.30
2023-03-17T08:21:20.311Z,35.20
2023-03-17T08:23:47.216Z,8.80
2023-03-17T08:26:18.578Z,90.10
2023-03-17T08:28:45.300Z,1.00
2023-03-17T08:31:15.812Z,1.00
2023-03-17T08:33:43.730Z,1.00
2023-03-17T08:36:11.508Z,1.00
2023-03-17T08:38:40.312Z,1.00
2023-03-17T08:41:09.621Z,79.40
2023-03-17T08:43:37.380Z,1.00
2023-03-17T08:46:11.213Z,41.50
2023-03-17T08:48:37.950Z,1.00
2023-03-17T08:51:06.037Z,1.00
2023-03-17T08:53:35.012Z,1.00
2023-03-17T08:56:04.650Z,1.00
2023-03-17T08:58:31.552Z,1.00
2023-03-17T09:01:02.821Z,69.10
2023-03-17T09:03:30.589Z,58.30
2023-03-17T09:05:58.634Z,30.40
2023-03-17T09:08:26.522Z,1.00
2023-03-17T09:10:54.200Z,1.00
2023-03-17T09:13:22.941Z,1.00
2023-03-17T09:15:51.849Z,84.20
2023-03-17T09:18:21.889Z,81.00
2023-03-17T09:20:48.953Z,77.00
2023-03-17T09:23:15.942Z,70.30
2023-03-17T09:25:42.862Z,74.50
2023-03-17T09:28:11.966Z,52.40
2023-03-17T09:30:42.600Z,23.10
2023-03-17T09:33:14.085Z,1.00
2023-03-17T09:35:41.500Z,1.00
2023-03-17T09:38:09.086Z,1.00
2023-03-17T09:40:52.820Z,1.00
2023-03-17T09:43:37.190Z,1.00
2023-03-17T09:46:34.080Z,1.00
2023-03-17T09:49:11.864Z,1.00
2023-03-17T09:51:39.622Z,1.00
2023-03-17T09:54:21.559Z,92.00
2023-03-17T09:56:54.482Z,82.00
2023-03-17T09:59:42.159Z,80.30
2023-03-17T10:02:23.959Z,73.30
2023-03-17T10:04:51.642Z,68.60
2023-03-17T10:07:26.982Z,70.60
2023-03-17T10:10:05.158Z,67.40
2023-03-17T10:13:01.084Z,49.80
2023-03-17T10:15:45.714Z,59.40
2023-03-17T10:18:14.799Z,41.50
2023-03-17T10:20:52.238Z,27.70
2023-03-17T10:23:24.422Z,15.50
2023-03-17T10:25:52.044Z,1.00
2023-03-17T10:28:30.661Z,1.00
2023-03-17T10:31:28.462Z,1.00
2023-03-17T10:33:58.410Z,1.00
2023-03-17T10:36:38.615Z,1.00
2023-03-17T10:39:07.366Z,1.00
2023-03-17T10:41:39.559Z,1.00
2023-03-17T10:44:11.169Z,1.00
2023-03-17T10:46:39.133Z,1.00
2023-03-17T10:49:16.392Z,1.00
2023-03-17T10:51:46.643Z,1.00
2023-03-17T10:54:18.805Z,1.00
2023-03-17T10:56:50.123Z,1.00
2023-03-17T11:02:06.531Z,1.00
2023-03-17T11:04:39.123Z,1.00
2023-03-17T11:07:10.808Z,1.00
2023-03-17T11:09:38.130Z,1.00
2023-03-17T11:12:27.526Z,1.00
2023-03-17T11:15:03.772Z,1.00
2023-03-17T11:17:45.492Z,1.00
2023-03-17T11:20:40.132Z,1.00
2023-03-17T11:23:38.764Z,93.70
2023-03-17T11:26:14.665Z,93.40
2023-03-17T11:28:50.319Z,92.90
2023-03-17T11:31:31.094Z,92.40
2023-03-17T11:34:08.741Z,92.20
2023-03-17T11:36:56.429Z,90.80
2023-03-17T11:39:27.304Z,91.50
2023-03-17T11:42:23.066Z,90.60
2023-03-17T11:45:03.851Z,88.60
2023-03-17T11:48:05.980Z,89.80
2023-03-17T11:50:47.698Z,88.70
2023-03-17T11:53:45.021Z,86.50
2023-03-17T11:56:22.934Z,86.40
2023-03-17T11:59:01.678Z,85.30
2023-03-17T12:01:50.000Z,82.30
2023-03-17T12:04:30.118Z,82.50
2023-03-17T12:07:21.366Z,83.10
2023-03-17T12:09:59.163Z,83.10
2023-03-17T12:12:32.736Z,80.60
2023-03-17T12:15:02.177Z,79.20
2023-03-17T12:17:48.893Z,82.10
2023-03-17T12:20:28.086Z,79.40
2023-03-17T12:23:01.926Z,79.50
2023-03-17T12:25:35.948Z,79.50
2023-03-17T12:28:17.531Z,78.00
2023-03-17T12:30:54.308Z,76.20
2023-03-17T12:33:30.385Z,76.70
2023-03-17T12:35:58.823Z,76.40
2023-03-17T12:38:38.262Z,77.50
2023-03-17T12:41:48.961Z,72.90
2023-03-17T12:44:18.663Z,72.50
2023-03-17T12:46:48.413Z,70.90
2023-03-17T12:49:51.405Z,72.80
2023-03-17T12:52:43.812Z,71.00
2023-03-17T12:55:15.683Z,69.70
2023-03-17T12:57:45.865Z,70.20
2023-03-17T13:00:29.592Z,69.40
2023-03-17T13:03:32.717Z,69.00
2023-03-17T13:06:08.676Z,69.60
2023-03-17T13:08:39.309Z,68.70
2023-03-17T13:11:29.477Z,69.20
2023-03-17T13:14:06.324Z,70.20
2023-03-17T13:16:41.244Z,69.90
2023-03-17T13:19:20.185Z,67.70
2023-03-17T13:22:05.476Z,68.30
2023-03-17T13:24:55.713Z,66.60
2023-03-17T13:27:31.834Z,66.60
2023-03-17T13:30:25.760Z,66.80
2023-03-17T13:32:57.452Z,67.30
2023-03-17T13:35:45.337Z,66.10
2023-03-17T13:38:31.816Z,68.00
2023-03-17T13:41:15.436Z,66.50
2023-03-17T13:44:03.707Z,66.40
2023-03-17T13:46:36.653Z,66.10
2023-03-17T13:49:18.631Z,66.40
2023-03-17T13:51:59.872Z,66.20
2023-03-17T13:54:28.048Z,65.40
2023-03-17T13:56:59.291Z,64.70
2023-03-17T13:59:57.526Z,64.10
2023-03-17T14:02:27.852Z,64.40
2023-03-17T14:05:24.896Z,64.20
2023-03-17T14:07:58.284Z,63.70
2023-03-17T14:10:27.938Z,63.70
2023-03-17T14:13:13.506Z,64.30
2023-03-17T14:16:04.577Z,64.40
2023-03-17T14:18:35.472Z,65.20
2023-03-17T14:21:10.508Z,64.30
2023-03-17T14:23:38.437Z,63.30
2023-03-17T14:26:07.209Z,64.20
2023-03-17T14:28:35.496Z,62.90
2023-03-17T14:31:05.414Z,63.50
2023-03-17T14:33:36.633Z,63.60
2023-03-17T14:36:08.385Z,64.00
2023-03-17T14:38:37.595Z,64.20
2023-03-17T14:41:06.855Z,64.20
2023-03-17T14:43:36.145Z,65.00
2023-03-17T14:46:05.930Z,64.30
2023-03-17T14:48:35.733Z,64.90
2023-03-17T14:51:08.407Z,63.90
2023-03-17T14:53:39.414Z,64.10
2023-03-17T14:56:06.631Z,65.00
2023-03-17T14:58:52.792Z,65.40
2023-03-17T15:01:45.498Z,65.30
2023-03-17T15:04:16.798Z,63.80
2023-03-17T15:06:50.893Z,63.80
2023-03-17T15:09:31.548Z,63.50
2023-03-17T15:12:15.450Z,62.70
2023-03-17T15:14:44.399Z,63.40
2023-03-17T15:17:28.768Z,63.20
2023-03-17T15:19:59.785Z,63.10
2023-03-17T15:22:32.630Z,63.30
2023-03-17T15:25:03.720Z,63.70
2023-03-17T15:27:31.664Z,64.00
2023-03-17T15:29:58.664Z,63.60
2023-03-17T15:32:27.207Z,62.50
2023-03-17T15:34:57.054Z,62.40
2023-03-17T15:37:29.565Z,62.00
2023-03-17T15:39:57.244Z,62.40
2023-03-17T15:42:30.993Z,61.90
2023-03-17T15:45:00.050Z,62.10
2023-03-17T15:47:31.916Z,62.30
2023-03-17T15:50:16.944Z,62.60
2023-03-17T15:52:44.803Z,62.60
2023-03-17T15:55:36.163Z,62.90
2023-03-17T15:58:02.912Z,63.20
2023-03-17T16:00:30.512Z,63.60
2023-03-17T16:03:02.640Z,64.30
2023-03-17T16:05:32.551Z,64.10
2023-03-17T16:07:59.300Z,64.40
2023-03-17T16:10:31.838Z,64.80
2023-03-17T16:12:59.244Z,65.30
2023-03-17T16:15:30.847Z,65.60
2023-03-17T16:18:00.399Z,66.10
2023-03-17T16:20:36.162Z,66.70
2023-03-17T16:23:37.258Z,67.40
2023-03-17T16:26:15.007Z,68.90
2023-03-17T16:28:45.362Z,70.20
2023-03-17T16:31:19.847Z,69.90
2023-03-17T16:33:47.311Z,71.00
2023-03-17T16:36:16.566Z,72.10
2023-03-17T16:38:44.099Z,74.50
2023-03-17T16:41:20.684Z,76.40
2023-03-17T16:43:51.315Z,79.10
2023-03-17T16:46:19.639Z,82.20
2023-03-17T16:48:48.312Z,83.70
2023-03-17T16:51:15.268Z,86.10
2023-03-17T16:53:42.222Z,89.20
2023-03-17T16:56:18.797Z,90.90
2023-03-17T16:58:46.735Z,92.40
2023-03-17T17:01:20.277Z,1.00
2023-03-17T17:03:47.292Z,1.00
2023-03-17T17:06:15.526Z,1.00
2023-03-17T17:08:43.794Z,1.00
2023-03-17T17:11:13.020Z,1.00
2023-03-17T17:13:41.267Z,1.00
2023-03-17T17:16:31.089Z,1.00
2023-03-17T17:18:59.006Z,1.00
2023-03-17T17:21:26.632Z,11.30
2023-03-17T17:23:53.830Z,12.50
2023-03-17T17:26:21.495Z,27.80
2023-03-17T17:28:48.377Z,61.10
2023-03-17T17:31:15.396Z,71.40
2023-03-17T17:33:42.142Z,81.60
2023-03-17T17:36:14.548Z,88.20
2023-03-17T17:38:41.633Z,91.90
2023-03-17T17:41:10.679Z,1.00
2023-03-17T17:43:37.810Z,1.00
2023-03-17T17:46:11.697Z,1.00
2023-03-17T17:48:38.496Z,1.00
2023-03-17T17:51:05.466Z,1.00
2023-03-17T17:53:32.429Z,1.00
2023-03-17T17:55:59.350Z,1.00
2023-03-17T17:58:26.801Z,1.00
2023-03-17T18:00:57.473Z,18.70
2023-03-17T18:03:25.614Z,49.20
2023-03-17T18:05:56.430Z,65.20
2023-03-17T18:08:24.410Z,73.80
2023-03-17T18:10:52.351Z,77.30
2023-03-17T18:13:19.256Z,88.70
2023-03-17T18:15:46.162Z,90.10
2023-03-17T18:18:12.924Z,1.00
2023-03-17T18:20:39.704Z,1.00
2023-03-17T18:23:06.726Z,1.00
2023-03-17T18:25:33.919Z,1.00
2023-03-17T18:28:01.508Z,1.00
2023-03-17T18:30:31.625Z,14.00
2023-03-17T18:33:09.233Z,43.40
2023-03-17T18:35:36.538Z,62.40
2023-03-17T18:38:03.556Z,68.90
2023-03-17T18:40:30.373Z,89.10
2023-03-17T18:42:57.291Z,1.00
2023-03-17T18:45:24.057Z,6.00
2023-03-17T18:47:50.930Z,68.20
2023-03-17T18:50:18.727Z,85.70
2023-03-17T18:52:46.065Z,1.00
2023-03-17T18:55:15.124Z,41.50
2023-03-17T18:57:44.716Z,1.00
2023-03-17T19:00:13.938Z,6.50
2023-03-17T19:02:40.857Z,61.70
2023-03-17T19:05:08.083Z,1.00
2023-03-17T19:07:35.096Z,90.00
2023-03-17T19:10:02.060Z,1.00
2023-03-17T19:12:28.796Z,28.00
2023-03-17T19:14:55.623Z,82.00
2023-03-17T19:17:22.804Z,1.00
2023-03-17T19:19:52.999Z,68.70
2023-03-17T19:22:19.742Z,1.00
2023-03-17T19:24:47.938Z,63.40
2023-03-17T19:27:14.673Z,79.10
2023-03-17T19:29:41.452Z,1.00
2023-03-17T19:32:09.039Z,1.00
2023-03-17T19:34:35.819Z,1.00
2023-03-17T19:37:03.654Z,1.00
2023-03-17T19:39:31.354Z,1.00
2023-03-17T19:41:59.267Z,6.50
2023-03-17T19:44:26.465Z,1.00
2023-03-17T19:46:53.348Z,1.00
2023-03-17T19:49:21.185Z,1.00
2023-03-17T19:51:49.195Z,1.00
2023-03-17T19:54:16.662Z,1.00
2023-03-17T19:56:44.063Z,1.00
2023-03-17T19:59:10.880Z,1.00
2023-03-17T20:01:38.462Z,3.90
2023-03-17T20:04:07.292Z,1.00
2023-03-17T20:06:34.771Z,13.10
2023-03-17T20:09:04.112Z,61.80
2023-03-17T20:11:33.860Z,68.10
2023-03-17T20:14:02.071Z,68.80
2023-03-17T20:16:31.905Z,81.40
2023-03-17T20:18:58.685Z,90.60
2023-03-17T20:21:25.977Z,85.60
2023-03-17T20:23:53.120Z,84.00
2023-03-17T20:26:20.199Z,86.90
2023-03-17T20:28:47.476Z,91.00
2023-03-17T20:31:14.380Z,93.70
2023-03-17T20:33:41.974Z,95.20
2023-03-17T20:36:09.372Z,94.40
2023-03-17T20:38:39.661Z,94.90
2023-03-17T20:41:12.566Z,94.30
2023-03-17T20:43:40.365Z,94.00
2023-03-17T20:46:09.061Z,94.40
2023-03-17T20:48:37.220Z,94.40
2023-03-17T20:51:06.261Z,1.00
2023-03-17T20:53:34.350Z,1.00
2023-03-17T20:56:01.441Z,1.00
2023-03-17T20:58:29.076Z,1.00
2023-03-17T21:00:57.096Z,1.00
2023-03-17T21:03:24.052Z,1.00
2023-03-17T21:05:51.098Z,1.00
2023-03-17T21:08:18.931Z,1.00
2023-03-17T21:10:45.786Z,1.00
2023-03-17T21:13:12.662Z,1.00
2023-03-17T21:15:40.040Z,1.00
2023-03-17T21:18:07.230Z,1.00
2023-03-17T21:20:34.134Z,1.00
2023-03-17T21:23:04.412Z,1.00
2023-03-17T21:25:31.325Z,1.00
2023-03-17T21:27:58.147Z,1.00
2023-03-17T21:30:24.854Z,1.00
2023-03-17T21:32:51.778Z,1.00
2023-03-17T21:35:18.747Z,25.80
2023-03-17T21:37:45.606Z,54.90
2023-03-17T21:40:13.696Z,57.00
2023-03-17T21:42:40.781Z,71.50
2023-03-17T21:45:08.041Z,75.70
2023-03-17T21:47:36.274Z,73.70
2023-03-17T21:50:05.153Z,73.50
2023-03-17T21:52:32.121Z,73.20
2023-03-17T21:54:59.678Z,74.00
2023-03-17T21:57:27.739Z,76.00
2023-03-17T21:59:54.563Z,78.10
2023-03-17T22:02:21.881Z,79.70
2023-03-17T22:04:49.494Z,79.50
2023-03-17T22:07:17.772Z,80.40
2023-03-17T22:09:44.871Z,80.40
2023-03-17T22:12:12.241Z,84.60
2023-03-17T22:14:39.044Z,85.60
2023-03-17T22:17:05.739Z,85.60
2023-03-17T22:19:32.669Z,85.10
2023-03-17T22:21:59.452Z,85.00
2023-03-17T22:24:26.584Z,84.70
2023-03-17T22:26:53.428Z,84.20
2023-03-17T22:29:20.148Z,84.10
2023-03-17T22:31:47.064Z,84.70
2023-03-17T22:34:13.877Z,84.30
2023-03-17T22:36:41.173Z,84.40
2023-03-17T22:39:10.866Z,84.10
2023-03-17T22:41:38.618Z,84.90
2023-03-17T22:44:08.329Z,85.10
2023-03-17T22:46:36.611Z,85.00
2023-03-17T22:49:03.849Z,84.20
2023-03-17T22:51:30.615Z,84.00
2023-03-17T22:53:57.985Z,83.60
2023-03-17T22:56:26.064Z,84.30
2023-03-17T22:58:53.384Z,85.50
2023-03-17T23:01:22.514Z,85.80
2023-03-17T23:03:50.131Z,86.00
2023-03-17T23:06:17.736Z,87.50
2023-03-17T23:08:45.930Z,88.90
2023-03-17T23:11:18.160Z,89.80
2023-03-17T23:13:46.864Z,90.00
2023-03-17T23:16:14.721Z,90.10
2023-03-17T23:18:42.834Z,90.30
2023-03-17T23:21:10.573Z,90.40
2023-03-17T23:23:38.536Z,90.40
2023-03-17T23:26:06.443Z,90.50
2023-03-17T23:28:33.195Z,90.60
2023-03-17T23:31:00.074Z,91.30
2023-03-17T23:33:28.316Z,91.30
2023-03-17T23:35:55.462Z,91.20
2023-03-17T23:38:22.320Z,91.20
2023-03-17T23:40:49.972Z,91.10
2023-03-17T23:43:17.019Z,91.00
2023-03-17T23:45:44.032Z,91.10
2023-03-17T23:48:11.716Z,91.10
2023-03-17T23:50:41.071Z,90.90
2023-03-17T23:53:08.192Z,90.90
2023-03-17T23:55:35.624Z,90.90
2023-03-17T23:58:02.595Z,91.00
